sensor_id;sensor_type;location;lat;lon;timestamp;P1;durP1;ratioP1;P2;durP2;ratioP2
72319;SDS011;60269;52.502;16.732;2022-07-23T00:00:46;14.10;;;7.65;;
72319;SDS011;60269;52.502;16.732;2022-07-23T00:04:31;11.82;;;6.70;;
72319;SDS011;60269;52.502;16.732;2022-07-23T00:08:16;13.13;;;7.33;;
72319;SDS011;60269;52.502;16.732;2022-07-23T00:12:08;13.00;;;7.33;;
72319;SDS011;60269;52.502;16.732;2022-07-23T00:15:46;12.07;;;7.38;;
72319;SDS011;60269;52.502;16.732;2022-07-23T00:19:38;16.17;;;7.43;;
72319;SDS011;60269;52.502;16.732;2022-07-23T00:23:23;16.20;;;8.27;;
72319;SDS011;60269;52.502;16.732;2022-07-23T00:27:08;13.03;;;7.53;;
72319;SDS011;60269;52.502;16.732;2022-07-23T00:30:53;16.57;;;7.47;;
72319;SDS011;60269;52.502;16.732;2022-07-23T00:34:45;13.95;;;7.30;;
72319;SDS011;60269;52.502;16.732;2022-07-23T00:38:30;18.25;;;8.60;;
72319;SDS011;60269;52.502;16.732;2022-07-23T00:42:15;16.73;;;8.98;;
72319;SDS011;60269;52.502;16.732;2022-07-23T00:46:00;15.70;;;8.77;;
72319;SDS011;60269;52.502;16.732;2022-07-23T00:49:52;16.30;;;8.67;;
72319;SDS011;60269;52.502;16.732;2022-07-23T00:53:30;13.02;;;7.53;;
72319;SDS011;60269;52.502;16.732;2022-07-23T00:57:22;17.85;;;8.57;;
72319;SDS011;60269;52.502;16.732;2022-07-23T01:01:05;13.60;;;8.00;;
72319;SDS011;60269;52.502;16.732;2022-07-23T01:04:57;13.63;;;7.80;;
72319;SDS011;60269;52.502;16.732;2022-07-23T01:08:42;15.83;;;8.77;;
72319;SDS011;60269;52.502;16.732;2022-07-23T01:12:35;18.10;;;10.68;;
72319;SDS011;60269;52.502;16.732;2022-07-23T01:16:20;16.65;;;9.75;;
72319;SDS011;60269;52.502;16.732;2022-07-23T01:20:12;18.27;;;9.85;;
72319;SDS011;60269;52.502;16.732;2022-07-23T01:23:50;19.37;;;10.67;;
72319;SDS011;60269;52.502;16.732;2022-07-23T01:27:42;18.10;;;9.93;;
72319;SDS011;60269;52.502;16.732;2022-07-23T01:31:27;15.82;;;8.13;;
72319;SDS011;60269;52.502;16.732;2022-07-23T01:35:13;16.10;;;8.35;;
72319;SDS011;60269;52.502;16.732;2022-07-23T01:38:58;16.65;;;8.43;;
72319;SDS011;60269;52.502;16.732;2022-07-23T01:42:50;14.23;;;7.67;;
72319;SDS011;60269;52.502;16.732;2022-07-23T01:46:38;15.63;;;8.53;;
72319;SDS011;60269;52.502;16.732;2022-07-23T01:50:23;16.30;;;8.07;;
72319;SDS011;60269;52.502;16.732;2022-07-23T01:54:08;14.07;;;7.55;;
72319;SDS011;60269;52.502;16.732;2022-07-23T01:58:00;13.88;;;8.02;;
72319;SDS011;60269;52.502;16.732;2022-07-23T02:01:45;16.63;;;9.77;;
72319;SDS011;60269;52.502;16.732;2022-07-23T02:05:30;15.37;;;9.10;;
72319;SDS011;60269;52.502;16.732;2022-07-23T02:09:16;16.48;;;10.02;;
72319;SDS011;60269;52.502;16.732;2022-07-23T02:13:08;15.05;;;8.90;;
72319;SDS011;60269;52.502;16.732;2022-07-23T02:16:46;19.15;;;8.55;;
72319;SDS011;60269;52.502;16.732;2022-07-23T02:20:38;16.17;;;7.90;;
72319;SDS011;60269;52.502;16.732;2022-07-23T02:24:24;15.37;;;8.27;;
72319;SDS011;60269;52.502;16.732;2022-07-23T02:28:09;16.40;;;8.93;;
72319;SDS011;60269;52.502;16.732;2022-07-23T02:31:54;17.13;;;9.02;;
72319;SDS011;60269;52.502;16.732;2022-07-23T02:35:46;16.25;;;8.70;;
72319;SDS011;60269;52.502;16.732;2022-07-23T02:39:24;16.33;;;9.13;;
72319;SDS011;60269;52.502;16.732;2022-07-23T02:43:16;18.13;;;9.73;;
72319;SDS011;60269;52.502;16.732;2022-07-23T02:47:01;18.50;;;10.68;;
72319;SDS011;60269;52.502;16.732;2022-07-23T02:50:53;21.42;;;10.88;;
72319;SDS011;60269;52.502;16.732;2022-07-23T02:54:40;17.48;;;9.55;;
72319;SDS011;60269;52.502;16.732;2022-07-23T02:58:32;18.10;;;9.97;;
72319;SDS011;60269;52.502;16.732;2022-07-23T03:02:10;20.03;;;9.50;;
72319;SDS011;60269;52.502;16.732;2022-07-23T03:06:02;17.83;;;10.70;;
72319;SDS011;60269;52.502;16.732;2022-07-23T03:09:47;16.10;;;9.30;;
72319;SDS011;60269;52.502;16.732;2022-07-23T03:13:39;17.73;;;9.52;;
72319;SDS011;60269;52.502;16.732;2022-07-23T03:17:18;15.47;;;8.80;;
72319;SDS011;60269;52.502;16.732;2022-07-23T03:21:10;15.83;;;9.77;;
72319;SDS011;60269;52.502;16.732;2022-07-23T03:24:55;17.00;;;9.57;;
72319;SDS011;60269;52.502;16.732;2022-07-23T03:28:47;18.35;;;10.20;;
72319;SDS011;60269;52.502;16.732;2022-07-23T03:32:32;19.48;;;10.48;;
72319;SDS011;60269;52.502;16.732;2022-07-23T03:36:17;22.10;;;9.83;;
72319;SDS011;60269;52.502;16.732;2022-07-23T03:40:02;20.07;;;11.30;;
72319;SDS011;60269;52.502;16.732;2022-07-23T03:43:47;20.73;;;10.43;;
72319;SDS011;60269;52.502;16.732;2022-07-23T03:47:32;20.13;;;11.70;;
72319;SDS011;60269;52.502;16.732;2022-07-23T03:51:24;20.02;;;11.02;;
72319;SDS011;60269;52.502;16.732;2022-07-23T03:55:09;18.83;;;11.10;;
72319;SDS011;60269;52.502;16.732;2022-07-23T03:58:54;20.27;;;11.47;;
72319;SDS011;60269;52.502;16.732;2022-07-23T04:02:54;18.80;;;11.40;;
72319;SDS011;60269;52.502;16.732;2022-07-23T04:06:53;19.55;;;11.48;;
72319;SDS011;60269;52.502;16.732;2022-07-23T04:10:32;17.58;;;11.57;;
72319;SDS011;60269;52.502;16.732;2022-07-23T04:14:23;20.03;;;11.73;;
72319;SDS011;60269;52.502;16.732;2022-07-23T04:18:02;24.83;;;12.40;;
72319;SDS011;60269;52.502;16.732;2022-07-23T04:22:00;20.73;;;12.82;;
72319;SDS011;60269;52.502;16.732;2022-07-23T04:25:59;20.15;;;12.25;;
72319;SDS011;60269;52.502;16.732;2022-07-23T04:29:38;20.08;;;11.70;;
72319;SDS011;60269;52.502;16.732;2022-07-23T04:33:36;18.87;;;11.70;;
72319;SDS011;60269;52.502;16.732;2022-07-23T04:37:35;19.73;;;11.13;;
72319;SDS011;60269;52.502;16.732;2022-07-23T04:41:14;21.55;;;10.77;;
72319;SDS011;60269;52.502;16.732;2022-07-23T04:45:05;15.63;;;9.70;;
72319;SDS011;60269;52.502;16.732;2022-07-23T04:48:44;21.77;;;11.40;;
72319;SDS011;60269;52.502;16.732;2022-07-23T04:52:43;20.30;;;12.30;;
72319;SDS011;60269;52.502;16.732;2022-07-23T04:56:22;18.20;;;11.80;;
72319;SDS011;60269;52.502;16.732;2022-07-23T05:00:13;17.25;;;11.45;;
72319;SDS011;60269;52.502;16.732;2022-07-23T05:03:52;18.98;;;10.82;;
72319;SDS011;60269;52.502;16.732;2022-07-23T05:07:51;16.35;;;11.13;;
72319;SDS011;60269;52.502;16.732;2022-07-23T05:11:30;16.07;;;10.00;;
72319;SDS011;60269;52.502;16.732;2022-07-23T05:15:21;16.27;;;10.43;;
72319;SDS011;60269;52.502;16.732;2022-07-23T05:19:01;16.38;;;9.85;;
72319;SDS011;60269;52.502;16.732;2022-07-23T05:22:59;15.85;;;10.27;;
72319;SDS011;60269;52.502;16.732;2022-07-23T05:26:58;15.25;;;9.70;;
72319;SDS011;60269;52.502;16.732;2022-07-23T05:30:37;15.23;;;10.33;;
72319;SDS011;60269;52.502;16.732;2022-07-23T05:34:36;15.83;;;11.00;;
72319;SDS011;60269;52.502;16.732;2022-07-23T05:38:35;17.02;;;10.43;;
72319;SDS011;60269;52.502;16.732;2022-07-23T05:42:14;15.75;;;9.75;;
72319;SDS011;60269;52.502;16.732;2022-07-23T05:46:12;14.02;;;9.85;;
72319;SDS011;60269;52.502;16.732;2022-07-23T05:49:51;13.07;;;9.00;;
72319;SDS011;60269;52.502;16.732;2022-07-23T05:53:49;14.10;;;9.37;;
72319;SDS011;60269;52.502;16.732;2022-07-23T05:57:48;14.07;;;9.32;;
72319;SDS011;60269;52.502;16.732;2022-07-23T06:01:47;15.30;;;8.10;;
72319;SDS011;60269;52.502;16.732;2022-07-23T06:05:26;14.23;;;8.07;;
72319;SDS011;60269;52.502;16.732;2022-07-23T06:09:24;13.00;;;8.37;;
72319;SDS011;60269;52.502;16.732;2022-07-23T06:13:03;11.33;;;7.70;;
72319;SDS011;60269;52.502;16.732;2022-07-23T06:17:01;11.13;;;7.50;;
72319;SDS011;60269;52.502;16.732;2022-07-23T06:20:40;13.18;;;8.30;;
72319;SDS011;60269;52.502;16.732;2022-07-23T06:24:44;12.50;;;6.95;;
72319;SDS011;60269;52.502;16.732;2022-07-23T06:28:23;14.07;;;7.33;;
72319;SDS011;60269;52.502;16.732;2022-07-23T06:32:14;11.53;;;6.90;;
72319;SDS011;60269;52.502;16.732;2022-07-23T06:35:53;10.65;;;7.25;;
72319;SDS011;60269;52.502;16.732;2022-07-23T06:39:51;10.63;;;6.50;;
72319;SDS011;60269;52.502;16.732;2022-07-23T06:43:30;11.93;;;7.20;;
72319;SDS011;60269;52.502;16.732;2022-07-23T06:47:29;10.47;;;7.00;;
72319;SDS011;60269;52.502;16.732;2022-07-23T06:51:08;11.13;;;6.37;;
72319;SDS011;60269;52.502;16.732;2022-07-23T06:55:06;10.43;;;6.43;;
72319;SDS011;60269;52.502;16.732;2022-07-23T06:58:45;9.27;;;5.63;;
72319;SDS011;60269;52.502;16.732;2022-07-23T07:02:36;12.57;;;7.07;;
72319;SDS011;60269;52.502;16.732;2022-07-23T07:06:15;14.33;;;6.33;;
72319;SDS011;60269;52.502;16.732;2022-07-23T07:10:13;9.73;;;5.70;;
72319;SDS011;60269;52.502;16.732;2022-07-23T07:13:53;11.43;;;5.90;;
72319;SDS011;60269;52.502;16.732;2022-07-23T07:17:45;9.45;;;5.45;;
72319;SDS011;60269;52.502;16.732;2022-07-23T07:21:30;10.95;;;6.40;;
72319;SDS011;60269;52.502;16.732;2022-07-23T07:25:15;10.13;;;6.33;;
72319;SDS011;60269;52.502;16.732;2022-07-23T07:29:00;8.67;;;5.37;;
72319;SDS011;60269;52.502;16.732;2022-07-23T07:32:52;7.38;;;4.80;;
72319;SDS011;60269;52.502;16.732;2022-07-23T07:36:33;10.90;;;5.15;;
72319;SDS011;60269;52.502;16.732;2022-07-23T07:40:26;8.55;;;4.68;;
72319;SDS011;60269;52.502;16.732;2022-07-23T07:44:11;8.70;;;5.00;;
72319;SDS011;60269;52.502;16.732;2022-07-23T07:47:56;8.57;;;4.77;;
72319;SDS011;60269;52.502;16.732;2022-07-23T07:51:41;8.38;;;4.70;;
72319;SDS011;60269;52.502;16.732;2022-07-23T07:55:33;8.27;;;4.47;;
72319;SDS011;60269;52.502;16.732;2022-07-23T07:59:18;8.68;;;5.10;;
72319;SDS011;60269;52.502;16.732;2022-07-23T08:03:10;8.27;;;4.77;;
72319;SDS011;60269;52.502;16.732;2022-07-23T08:06:56;12.17;;;5.30;;
72319;SDS011;60269;52.502;16.732;2022-07-23T08:10:48;9.18;;;4.78;;
72319;SDS011;60269;52.502;16.732;2022-07-23T08:14:33;13.35;;;5.53;;
72319;SDS011;60269;52.502;16.732;2022-07-23T08:18:25;15.82;;;7.35;;
72319;SDS011;60269;52.502;16.732;2022-07-23T08:22:04;17.30;;;8.33;;
72319;SDS011;60269;52.502;16.732;2022-07-23T08:25:55;16.20;;;8.77;;
72319;SDS011;60269;52.502;16.732;2022-07-23T08:29:35;17.70;;;8.85;;
72319;SDS011;60269;52.502;16.732;2022-07-23T08:33:33;15.55;;;9.10;;
72319;SDS011;60269;52.502;16.732;2022-07-23T08:37:12;16.70;;;8.57;;
72319;SDS011;60269;52.502;16.732;2022-07-23T08:41:03;14.23;;;8.50;;
72319;SDS011;60269;52.502;16.732;2022-07-23T08:44:45;15.30;;;7.73;;
72319;SDS011;60269;52.502;16.732;2022-07-23T08:48:43;14.50;;;8.23;;
72319;SDS011;60269;52.502;16.732;2022-07-23T08:52:47;19.23;;;8.98;;
72319;SDS011;60269;52.502;16.732;2022-07-23T08:56:27;15.75;;;8.55;;
72319;SDS011;60269;52.502;16.732;2022-07-23T09:00:25;14.30;;;9.03;;
72319;SDS011;60269;52.502;16.732;2022-07-23T09:04:24;15.20;;;9.10;;
72319;SDS011;60269;52.502;16.732;2022-07-23T09:08:10;16.73;;;10.20;;
72319;SDS011;60269;52.502;16.732;2022-07-23T09:12:09;16.73;;;9.95;;
72319;SDS011;60269;52.502;16.732;2022-07-23T09:15:48;16.35;;;10.00;;
72319;SDS011;60269;52.502;16.732;2022-07-23T09:19:48;16.60;;;10.23;;
72319;SDS011;60269;52.502;16.732;2022-07-23T09:23:53;18.10;;;9.93;;
72319;SDS011;60269;52.502;16.732;2022-07-23T09:27:54;13.70;;;8.88;;
72319;SDS011;60269;52.502;16.732;2022-07-23T09:31:55;14.13;;;8.98;;
72319;SDS011;60269;52.502;16.732;2022-07-23T09:40:02;18.43;;;10.37;;
72319;SDS011;60269;52.502;16.732;2022-07-23T09:43:55;19.27;;;10.73;;
72319;SDS011;60269;52.502;16.732;2022-07-23T09:47:46;17.10;;;10.75;;
72319;SDS011;60269;52.502;16.732;2022-07-23T09:51:25;15.30;;;10.13;;
72319;SDS011;60269;52.502;16.732;2022-07-23T09:55:19;16.52;;;7.53;;
72319;SDS011;60269;52.502;16.732;2022-07-23T09:59:22;14.13;;;7.50;;
72319;SDS011;60269;52.502;16.732;2022-07-23T10:03:08;13.03;;;6.63;;
72319;SDS011;60269;52.502;16.732;2022-07-23T10:06:56;13.75;;;7.68;;
72319;SDS011;60269;52.502;16.732;2022-07-23T10:10:48;14.75;;;8.35;;
72319;SDS011;60269;52.502;16.732;2022-07-23T10:14:29;13.85;;;8.40;;
72319;SDS011;60269;52.502;16.732;2022-07-23T10:18:27;13.03;;;8.30;;
72319;SDS011;60269;52.502;16.732;2022-07-23T10:22:28;12.67;;;8.03;;
72319;SDS011;60269;52.502;16.732;2022-07-23T10:26:29;13.50;;;8.20;;
72319;SDS011;60269;52.502;16.732;2022-07-23T10:30:21;13.50;;;7.72;;
72319;SDS011;60269;52.502;16.732;2022-07-23T10:38:11;13.13;;;8.00;;
72319;SDS011;60269;52.502;16.732;2022-07-23T10:42:10;12.37;;;6.30;;
72319;SDS011;60269;52.502;16.732;2022-07-23T10:46:20;10.13;;;5.70;;
72319;SDS011;60269;52.502;16.732;2022-07-23T10:50:31;10.48;;;5.88;;
72319;SDS011;60269;52.502;16.732;2022-07-23T10:54:22;10.80;;;5.32;;
72319;SDS011;60269;52.502;16.732;2022-07-23T10:58:04;10.90;;;5.70;;
72319;SDS011;60269;52.502;16.732;2022-07-23T11:06:07;11.82;;;5.18;;
72319;SDS011;60269;52.502;16.732;2022-07-23T11:09:51;9.98;;;5.95;;
72319;SDS011;60269;52.502;16.732;2022-07-23T11:13:40;10.82;;;5.82;;
72319;SDS011;60269;52.502;16.732;2022-07-23T11:25:28;8.15;;;4.40;;
72319;SDS011;60269;52.502;16.732;2022-07-23T11:33:24;8.02;;;3.92;;
72319;SDS011;60269;52.502;16.732;2022-07-23T11:37:04;8.37;;;4.00;;
72319;SDS011;60269;52.502;16.732;2022-07-23T11:40:57;6.70;;;3.50;;
72319;SDS011;60269;52.502;16.732;2022-07-23T11:44:43;6.63;;;3.75;;
72319;SDS011;60269;52.502;16.732;2022-07-23T11:48:37;6.65;;;4.07;;
72319;SDS011;60269;52.502;16.732;2022-07-23T11:52:23;7.05;;;3.50;;
72319;SDS011;60269;52.502;16.732;2022-07-23T11:56:22;6.50;;;3.13;;
72319;SDS011;60269;52.502;16.732;2022-07-23T12:00:22;8.13;;;3.30;;
72319;SDS011;60269;52.502;16.732;2022-07-23T12:04:25;7.22;;;3.42;;
72319;SDS011;60269;52.502;16.732;2022-07-23T12:08:14;6.90;;;3.63;;
72319;SDS011;60269;52.502;16.732;2022-07-23T12:12:12;6.88;;;3.45;;
72319;SDS011;60269;52.502;16.732;2022-07-23T12:16:11;7.87;;;4.20;;
72319;SDS011;60269;52.502;16.732;2022-07-23T12:19:50;7.53;;;4.33;;
72319;SDS011;60269;52.502;16.732;2022-07-23T12:23:41;10.25;;;4.78;;
72319;SDS011;60269;52.502;16.732;2022-07-23T12:27:21;8.38;;;4.90;;
72319;SDS011;60269;52.502;16.732;2022-07-23T12:31:25;11.05;;;5.25;;
72319;SDS011;60269;52.502;16.732;2022-07-23T12:35:06;9.17;;;4.90;;
72319;SDS011;60269;52.502;16.732;2022-07-23T12:39:06;11.83;;;5.63;;
72319;SDS011;60269;52.502;16.732;2022-07-23T12:42:48;10.18;;;6.25;;
72319;SDS011;60269;52.502;16.732;2022-07-23T12:46:41;10.02;;;6.65;;
72319;SDS011;60269;52.502;16.732;2022-07-23T12:55:05;10.97;;;6.13;;
72319;SDS011;60269;52.502;16.732;2022-07-23T12:59:24;9.93;;;5.83;;
72319;SDS011;60269;52.502;16.732;2022-07-23T13:03:20;9.48;;;6.03;;
72319;SDS011;60269;52.502;16.732;2022-07-23T13:07:15;9.85;;;6.40;;
72319;SDS011;60269;52.502;16.732;2022-07-23T13:10:57;10.57;;;7.10;;
72319;SDS011;60269;52.502;16.732;2022-07-23T13:14:55;11.63;;;7.53;;
72319;SDS011;60269;52.502;16.732;2022-07-23T13:18:34;11.10;;;6.73;;
72319;SDS011;60269;52.502;16.732;2022-07-23T13:22:25;10.75;;;6.85;;
72319;SDS011;60269;52.502;16.732;2022-07-23T13:26:04;13.98;;;8.80;;
72319;SDS011;60269;52.502;16.732;2022-07-23T13:29:55;14.10;;;9.02;;
72319;SDS011;60269;52.502;16.732;2022-07-23T13:33:34;14.13;;;7.23;;
72319;SDS011;60269;52.502;16.732;2022-07-23T13:37:32;13.07;;;6.90;;
72319;SDS011;60269;52.502;16.732;2022-07-23T13:41:11;10.80;;;7.43;;
72319;SDS011;60269;52.502;16.732;2022-07-23T13:45:09;11.07;;;6.70;;
72319;SDS011;60269;52.502;16.732;2022-07-23T13:48:48;11.40;;;6.68;;
72319;SDS011;60269;52.502;16.732;2022-07-23T13:52:46;10.80;;;6.93;;
72319;SDS011;60269;52.502;16.732;2022-07-23T13:56:45;9.97;;;6.53;;
72319;SDS011;60269;52.502;16.732;2022-07-23T14:00:25;11.82;;;6.35;;
72319;SDS011;60269;52.502;16.732;2022-07-23T14:04:36;11.50;;;7.35;;
72319;SDS011;60269;52.502;16.732;2022-07-23T14:08:22;11.00;;;6.72;;
72319;SDS011;60269;52.502;16.732;2022-07-23T14:12:07;10.13;;;6.30;;
72319;SDS011;60269;52.502;16.732;2022-07-23T14:15:55;10.60;;;5.67;;
72319;SDS011;60269;52.502;16.732;2022-07-23T14:19:46;9.63;;;5.75;;
72319;SDS011;60269;52.502;16.732;2022-07-23T14:23:32;10.25;;;6.40;;
72319;SDS011;60269;52.502;16.732;2022-07-23T14:27:17;10.38;;;5.63;;
72319;SDS011;60269;52.502;16.732;2022-07-23T14:31:02;8.90;;;5.30;;
72319;SDS011;60269;52.502;16.732;2022-07-23T14:34:57;8.90;;;5.20;;
72319;SDS011;60269;52.502;16.732;2022-07-23T14:38:48;11.23;;;5.63;;
72319;SDS011;60269;52.502;16.732;2022-07-23T14:42:39;8.25;;;5.25;;
72319;SDS011;60269;52.502;16.732;2022-07-23T14:46:25;8.32;;;4.75;;
72319;SDS011;60269;52.502;16.732;2022-07-23T14:50:10;8.63;;;5.33;;
72319;SDS011;60269;52.502;16.732;2022-07-23T14:53:56;8.83;;;4.90;;
72319;SDS011;60269;52.502;16.732;2022-07-23T14:57:50;10.07;;;5.30;;
72319;SDS011;60269;52.502;16.732;2022-07-23T15:01:35;7.57;;;4.15;;
72319;SDS011;60269;52.502;16.732;2022-07-23T15:05:33;8.45;;;4.45;;
72319;SDS011;60269;52.502;16.732;2022-07-23T15:09:12;7.93;;;4.83;;
72319;SDS011;60269;52.502;16.732;2022-07-23T15:13:04;8.50;;;5.27;;
72319;SDS011;60269;52.502;16.732;2022-07-23T15:16:44;9.32;;;4.40;;
72319;SDS011;60269;52.502;16.732;2022-07-23T15:20:42;8.32;;;4.43;;
72319;SDS011;60269;52.502;16.732;2022-07-23T15:24:22;10.20;;;4.57;;
72319;SDS011;60269;52.502;16.732;2022-07-23T15:28:21;7.60;;;4.07;;
72319;SDS011;60269;52.502;16.732;2022-07-23T15:31:59;8.17;;;4.70;;
72319;SDS011;60269;52.502;16.732;2022-07-23T15:35:58;12.05;;;5.00;;
72319;SDS011;60269;52.502;16.732;2022-07-23T15:39:37;9.88;;;4.90;;
72319;SDS011;60269;52.502;16.732;2022-07-23T15:43:30;7.72;;;4.50;;
72319;SDS011;60269;52.502;16.732;2022-07-23T15:47:16;8.60;;;4.70;;
72319;SDS011;60269;52.502;16.732;2022-07-23T15:51:09;8.33;;;4.57;;
72319;SDS011;60269;52.502;16.732;2022-07-23T15:54:55;8.30;;;4.50;;
72319;SDS011;60269;52.502;16.732;2022-07-23T15:58:43;9.85;;;4.78;;
72319;SDS011;60269;52.502;16.732;2022-07-23T16:02:28;8.48;;;4.65;;
72319;SDS011;60269;52.502;16.732;2022-07-23T16:06:13;9.63;;;5.33;;
72319;SDS011;60269;52.502;16.732;2022-07-23T16:09:58;8.60;;;4.27;;
72319;SDS011;60269;52.502;16.732;2022-07-23T16:13:43;9.82;;;4.70;;
72319;SDS011;60269;52.502;16.732;2022-07-23T16:17:29;8.20;;;4.53;;
72319;SDS011;60269;52.502;16.732;2022-07-23T16:21:14;8.90;;;4.53;;
72319;SDS011;60269;52.502;16.732;2022-07-23T16:24:59;8.97;;;4.23;;
72319;SDS011;60269;52.502;16.732;2022-07-23T16:28:51;9.47;;;4.90;;
72319;SDS011;60269;52.502;16.732;2022-07-23T16:32:36;9.43;;;4.53;;
72319;SDS011;60269;52.502;16.732;2022-07-23T16:36:29;9.90;;;4.95;;
72319;SDS011;60269;52.502;16.732;2022-07-23T16:40:08;11.20;;;4.95;;
72319;SDS011;60269;52.502;16.732;2022-07-23T16:44:09;11.53;;;5.50;;
72319;SDS011;60269;52.502;16.732;2022-07-23T16:48:09;11.33;;;5.57;;
72319;SDS011;60269;52.502;16.732;2022-07-23T16:52:08;8.20;;;5.45;;
72319;SDS011;60269;52.502;16.732;2022-07-23T16:55:48;9.70;;;4.70;;
72319;SDS011;60269;52.502;16.732;2022-07-23T16:59:40;9.18;;;4.97;;
72319;SDS011;60269;52.502;16.732;2022-07-23T17:03:18;10.33;;;5.20;;
72319;SDS011;60269;52.502;16.732;2022-07-23T17:07:18;9.67;;;4.40;;
72319;SDS011;60269;52.502;16.732;2022-07-23T17:10:57;8.27;;;4.15;;
72319;SDS011;60269;52.502;16.732;2022-07-23T17:14:50;8.38;;;4.70;;
72319;SDS011;60269;52.502;16.732;2022-07-23T17:18:35;8.20;;;4.10;;
72319;SDS011;60269;52.502;16.732;2022-07-23T17:22:27;7.73;;;3.93;;
72319;SDS011;60269;52.502;16.732;2022-07-23T17:26:05;7.03;;;3.90;;
72319;SDS011;60269;52.502;16.732;2022-07-23T17:30:05;7.43;;;3.67;;
72319;SDS011;60269;52.502;16.732;2022-07-23T17:33:50;10.32;;;4.15;;
72319;SDS011;60269;52.502;16.732;2022-07-23T17:37:37;9.50;;;3.95;;
72319;SDS011;60269;52.502;16.732;2022-07-23T17:41:22;7.63;;;3.87;;
72319;SDS011;60269;52.502;16.732;2022-07-23T17:45:07;10.33;;;4.17;;
72319;SDS011;60269;52.502;16.732;2022-07-23T17:48:59;7.53;;;3.67;;
72319;SDS011;60269;52.502;16.732;2022-07-23T17:52:54;6.90;;;3.28;;
72319;SDS011;60269;52.502;16.732;2022-07-23T17:56:41;8.07;;;3.22;;
72319;SDS011;60269;52.502;16.732;2022-07-23T18:00:28;8.27;;;3.30;;
72319;SDS011;60269;52.502;16.732;2022-07-23T18:04:16;9.33;;;3.10;;
72319;SDS011;60269;52.502;16.732;2022-07-23T18:08:01;6.95;;;3.13;;
72319;SDS011;60269;52.502;16.732;2022-07-23T18:11:48;8.88;;;3.20;;
72319;SDS011;60269;52.502;16.732;2022-07-23T18:15:41;9.85;;;3.35;;
72319;SDS011;60269;52.502;16.732;2022-07-23T18:19:26;9.10;;;3.70;;
72319;SDS011;60269;52.502;16.732;2022-07-23T18:23:18;10.00;;;3.57;;
72319;SDS011;60269;52.502;16.732;2022-07-23T18:26:56;11.15;;;3.58;;
72319;SDS011;60269;52.502;16.732;2022-07-23T18:30:48;10.10;;;5.18;;
72319;SDS011;60269;52.502;16.732;2022-07-23T18:34:27;7.93;;;3.65;;
72319;SDS011;60269;52.502;16.732;2022-07-23T18:38:21;10.80;;;4.33;;
72319;SDS011;60269;52.502;16.732;2022-07-23T18:42:07;8.20;;;3.43;;
72319;SDS011;60269;52.502;16.732;2022-07-23T18:45:59;7.88;;;3.60;;
72319;SDS011;60269;52.502;16.732;2022-07-23T18:49:46;8.65;;;3.28;;
72319;SDS011;60269;52.502;16.732;2022-07-23T18:53:39;8.95;;;3.55;;
72319;SDS011;60269;52.502;16.732;2022-07-23T18:57:24;9.77;;;3.37;;
72319;SDS011;60269;52.502;16.732;2022-07-23T19:01:09;8.27;;;3.10;;
72319;SDS011;60269;52.502;16.732;2022-07-23T19:04:56;10.23;;;3.75;;
72319;SDS011;60269;52.502;16.732;2022-07-23T19:08:48;10.52;;;4.15;;
72319;SDS011;60269;52.502;16.732;2022-07-23T19:12:26;8.23;;;3.70;;
72319;SDS011;60269;52.502;16.732;2022-07-23T19:16:18;9.00;;;3.70;;
72319;SDS011;60269;52.502;16.732;2022-07-23T19:19:57;8.43;;;3.63;;
72319;SDS011;60269;52.502;16.732;2022-07-23T19:23:50;8.55;;;4.15;;
72319;SDS011;60269;52.502;16.732;2022-07-23T19:27:38;11.40;;;4.45;;
72319;SDS011;60269;52.502;16.732;2022-07-23T19:31:30;9.10;;;4.03;;
72319;SDS011;60269;52.502;16.732;2022-07-23T19:35:15;10.67;;;4.53;;
72319;SDS011;60269;52.502;16.732;2022-07-23T19:39:08;10.23;;;4.23;;
72319;SDS011;60269;52.502;16.732;2022-07-23T19:42:46;10.10;;;3.97;;
72319;SDS011;60269;52.502;16.732;2022-07-23T19:46:38;10.88;;;4.75;;
72319;SDS011;60269;52.502;16.732;2022-07-23T19:50:23;9.85;;;3.88;;
72319;SDS011;60269;52.502;16.732;2022-07-23T19:54:16;9.10;;;4.07;;
72319;SDS011;60269;52.502;16.732;2022-07-23T19:57:54;8.07;;;3.37;;
72319;SDS011;60269;52.502;16.732;2022-07-23T20:01:46;8.93;;;4.72;;
72319;SDS011;60269;52.502;16.732;2022-07-23T20:05:31;9.25;;;4.32;;
72319;SDS011;60269;52.502;16.732;2022-07-23T20:09:16;10.88;;;4.55;;
72319;SDS011;60269;52.502;16.732;2022-07-23T20:13:01;8.47;;;4.23;;
72319;SDS011;60269;52.502;16.732;2022-07-23T20:16:53;10.67;;;5.03;;
72319;SDS011;60269;52.502;16.732;2022-07-23T20:20:31;14.02;;;4.55;;
72319;SDS011;60269;52.502;16.732;2022-07-23T20:24:30;10.05;;;4.97;;
72319;SDS011;60269;52.502;16.732;2022-07-23T20:28:08;8.98;;;4.72;;
72319;SDS011;60269;52.502;16.732;2022-07-23T20:32:00;10.53;;;4.70;;
72319;SDS011;60269;52.502;16.732;2022-07-23T20:35:38;11.43;;;5.50;;
72319;SDS011;60269;52.502;16.732;2022-07-23T20:39:37;10.38;;;5.13;;
72319;SDS011;60269;52.502;16.732;2022-07-23T20:43:16;10.10;;;5.53;;
72319;SDS011;60269;52.502;16.732;2022-07-23T20:47:08;11.75;;;5.22;;
72319;SDS011;60269;52.502;16.732;2022-07-23T20:50:46;11.43;;;5.23;;
72319;SDS011;60269;52.502;16.732;2022-07-23T20:54:40;9.20;;;4.80;;
72319;SDS011;60269;52.502;16.732;2022-07-23T20:58:18;10.57;;;5.50;;
72319;SDS011;60269;52.502;16.732;2022-07-23T21:02:10;16.92;;;5.85;;
72319;SDS011;60269;52.502;16.732;2022-07-23T21:05:50;10.85;;;5.35;;
72319;SDS011;60269;52.502;16.732;2022-07-23T21:09:42;12.03;;;5.87;;
72319;SDS011;60269;52.502;16.732;2022-07-23T21:13:20;12.43;;;6.17;;
72319;SDS011;60269;52.502;16.732;2022-07-23T21:17:20;10.38;;;6.13;;
72319;SDS011;60269;52.502;16.732;2022-07-23T21:21:24;11.98;;;6.10;;
72319;SDS011;60269;52.502;16.732;2022-07-23T21:25:02;12.07;;;5.80;;
72319;SDS011;60269;52.502;16.732;2022-07-23T21:29:02;13.37;;;6.10;;
72319;SDS011;60269;52.502;16.732;2022-07-23T21:32:42;14.33;;;6.37;;
72319;SDS011;60269;52.502;16.732;2022-07-23T21:36:41;12.93;;;5.70;;
72319;SDS011;60269;52.502;16.732;2022-07-23T21:40:40;10.68;;;5.05;;
72319;SDS011;60269;52.502;16.732;2022-07-23T21:44:18;10.05;;;4.50;;
72319;SDS011;60269;52.502;16.732;2022-07-23T21:48:10;12.03;;;4.23;;
72319;SDS011;60269;52.502;16.732;2022-07-23T21:51:50;9.47;;;4.00;;
72319;SDS011;60269;52.502;16.732;2022-07-23T21:55:49;11.48;;;4.30;;
72319;SDS011;60269;52.502;16.732;2022-07-23T21:59:27;9.60;;;3.97;;
72319;SDS011;60269;52.502;16.732;2022-07-23T22:03:26;10.80;;;4.32;;
72319;SDS011;60269;52.502;16.732;2022-07-23T22:07:04;11.10;;;4.47;;
72319;SDS011;60269;52.502;16.732;2022-07-23T22:11:03;10.67;;;5.03;;
72319;SDS011;60269;52.502;16.732;2022-07-23T22:14:41;13.70;;;6.65;;
72319;SDS011;60269;52.502;16.732;2022-07-23T22:18:33;12.68;;;6.10;;
72319;SDS011;60269;52.502;16.732;2022-07-23T22:22:11;13.75;;;6.75;;
72319;SDS011;60269;52.502;16.732;2022-07-23T22:26:03;12.30;;;6.23;;
72319;SDS011;60269;52.502;16.732;2022-07-23T22:29:41;11.63;;;5.90;;
72319;SDS011;60269;52.502;16.732;2022-07-23T22:33:40;10.52;;;5.80;;
72319;SDS011;60269;52.502;16.732;2022-07-23T22:37:39;14.15;;;6.05;;
72319;SDS011;60269;52.502;16.732;2022-07-23T22:41:38;16.17;;;6.75;;
72319;SDS011;60269;52.502;16.732;2022-07-23T22:45:18;12.37;;;6.47;;
72319;SDS011;60269;52.502;16.732;2022-07-23T22:49:17;12.37;;;5.40;;